Time;durP1;ratioP1;P1;durP2;ratioP2;P2;SDS_P1;SDS_P2;PMS_P1;PMS_P2;Temp;Humidity;BMP_temperature;BMP_pressure;BME280_temperature;BME280_humidity;BME280_pressure;Samples;Min_cycle;Max_cycle;Signal;HPM_P1;HPM_P2
2022/06/03 00:02:17;;;;;;;;;;;;;;;;;;4983395;28;130924;-66
2022/06/03 00:04:44;;;;;;;;;;;;;;;;;;4984188;28;137736;-66
2022/06/03 00:07:10;;;;;;;;;;;;;;;;;;4976480;28;123102;-66
2022/06/03 00:09:36;;;;;;;;;;;;;;;;;;4974606;28;125906;-66
2022/06/03 00:12:03;;;;;;;;;;;;;;;;;;4985257;28;126613;-66
2022/06/03 00:14:30;;;;;;;;;;;;;;;;;;4985378;28;106166;-66
2022/06/03 00:16:56;;;;;;;;;;;;;;;;;;4986405;28;106449;-66
2022/06/03 00:19:22;;;;;;;;;;;;;;;;;;4982381;28;123482;-65
2022/06/03 00:21:49;;;;;;;;;;;;;;;;;;4983722;28;130178;-65
2022/06/03 00:24:15;;;;;;;;;;;;;;;;;;4983204;28;120245;-66
2022/06/03 00:26:41;;;;;;;;;;;;;;;;;;4981905;28;131556;-66
2022/06/03 00:29:08;;;;;;;;;;;;;;;;;;4975209;28;122422;-66
2022/06/03 00:31:35;;;;;;;;;;;;;;;;;;4985133;28;134962;-66
2022/06/03 00:34:01;;;;;;;;;;;;;;;;;;4980955;28;131333;-66
2022/06/03 00:36:27;;;;;;;;;;;;;;;;;;4980752;28;106468;-66
2022/06/03 00:38:54;;;;;;;;;;;;;;;;;;4987303;28;106395;-66
2022/06/03 00:41:20;;;;;;;;;;;;;;;;;;4977033;28;138103;-65
2022/06/03 00:43:46;;;;;;;;;;;;;;;;;;4986126;28;110555;-65
2022/06/03 00:46:13;;;;;;;;;;;;;;;;;;4986758;28;125915;-65
2022/06/03 00:48:39;;;;;;;;;;;;;;;;;;4981100;28;117881;-67
2022/06/03 00:51:06;;;;;;;;;;;;;;;;;;4983021;28;116555;-67
2022/06/03 00:53:32;;;;;;;;;;;;;;;;;;4979679;28;130059;-67
2022/06/03 00:55:58;;;;;;;;;;;;;;;;;;4987113;28;123526;-67
2022/06/03 00:58:25;;;;;;;;;;;;;;;;;;4982784;28;123561;-67
2022/06/03 01:00:51;;;;;;;;;;;;;;;;;;4982661;28;125366;-67
2022/06/03 01:03:17;;;;;;;;;;;;;;;;;;4985715;28;108454;-67
2022/06/03 01:05:44;;;;;;;;;;;;;;;;;;5003921;22;111533;-77
2022/06/03 01:08:11;;;;;;;;;;;;;;;;;;4982002;28;127374;-76
2022/06/03 01:10:37;;;;;;;;;;;;;;;;;;4983617;28;131901;-77
2022/06/03 01:13:04;;;;;;;;;;;;;;;;;;4982193;28;134154;-77
2022/06/03 01:15:30;;;;;;;;;;;;;;;;;;4987719;28;106094;-77
2022/06/03 01:17:56;;;;;;;;;;;;;;;;;;4979062;28;136540;-77
2022/06/03 01:20:23;;;;;;;;;;;;;;;;;;4987322;28;110183;-77
2022/06/03 01:22:49;;;;;;;;;;;;;;;;;;4977231;28;127801;-77
2022/06/03 01:25:15;;;;;;;;;;;;;;;;;;4981212;28;130403;-77
2022/06/03 01:27:42;;;;;;;;;;;;;;;;;;4989412;28;123249;-77
2022/06/03 01:30:08;;;;;;;;;;;;;;;;;;4978052;28;135727;-77
2022/06/03 01:32:34;;;;;;;;;;;;;;;;;;4981972;28;135774;-76
2022/06/03 01:35:00;;;;;;;;;;;;;;;;;;4981905;28;129179;-77
2022/06/03 01:37:27;;;;;;;;;;;;;;;;;;4980051;28;119129;-77
2022/06/03 01:39:53;;;;;;;;;;;;;;;;;;4986643;28;133187;-77
2022/06/03 01:42:19;;;;;;;;;;;;;;;;;;4981632;28;119307;-77
2022/06/03 01:44:46;;;;;;;;;;;;;;;;;;4984808;28;126241;-77
2022/06/03 01:47:12;;;;;;;;;;;;;;;;;;4972045;28;126667;-77
2022/06/03 01:49:39;;;;;;;;;;;;;;;;;;4984616;28;117077;-77
2022/06/03 01:52:05;;;;;;;;;;;;;;;;;;4984739;28;107643;-77
2022/06/03 01:54:33;;;;;;;;;;;;;;;;;;4978520;28;109894;-77
2022/06/03 01:56:59;;;;;;;;;;;;;;;;;;4979565;28;129488;-76
2022/06/03 01:59:26;;;;;;;;;;;;;;;;;;4983577;28;119697;-76
2022/06/03 02:01:52;;;;;;;;;;;;;;;;;;4987211;28;119770;-77
2022/06/03 02:04:19;;;;;;;;;;;;;;;;;;4981469;28;127401;-76
2022/06/03 02:06:45;;;;;;;;;;;;;;;;;;4982922;28;128270;-77
2022/06/03 02:09:11;;;;;;;;;;;;;;;;;;4985011;28;106408;-77
2022/06/03 02:11:38;;;;;;;;;;;;;;;;;;4987701;28;136718;-77
2022/06/03 02:14:04;;;;;;;;;;;;;;;;;;4982719;28;129618;-71
2022/06/03 02:16:30;;;;;;;;;;;;;;;;;;4982103;28;110474;-76
2022/06/03 02:18:57;;;;;;;;;;;;;;;;;;4978324;28;120808;-77
2022/06/03 02:21:23;;;;;;;;;;;;;;;;;;4981043;28;123343;-76
2022/06/03 02:23:49;;;;;;;;;;;;;;;;;;4985785;28;130404;-77
2022/06/03 02:26:16;;;;;;;;;;;;;;;;;;4982607;28;133289;-77
2022/06/03 02:28:42;;;;;;;;;;;;;;;;;;4980036;28;105740;-77
2022/06/03 02:31:08;;;;;;;;;;;;;;;;;;4984748;28;136835;-78
2022/06/03 02:33:35;;;;;;;;;;;;;;;;;;4993195;28;129868;-77
2022/06/03 02:36:01;;;;;;;;;;;;;;;;;;4984347;28;137219;-77
2022/06/03 02:38:28;;;;;;;;;;;;;;;;;;4977305;28;108078;-77
2022/06/03 02:40:54;;;;;;;;;;;;;;;;;;4982876;28;118301;-77
2022/06/03 02:43:20;;;;;;;;;;;;;;;;;;4988659;28;128790;-78
2022/06/03 02:45:48;;;;;;;;;;;;;;;;;;4988616;28;115719;-77
2022/06/03 02:48:14;;;;;;;;;;;;;;;;;;4985875;28;123782;-77
2022/06/03 02:50:41;;;;;;;;;;;;;;;;;;4980490;28;111169;-77
2022/06/03 02:53:07;;;;;;;;;;;;;;;;;;4985863;28;132549;-77
2022/06/03 02:55:34;;;;;;;;;;;;;;;;;;4985983;28;123671;-77
2022/06/03 02:58:00;;;;;;;;;;;;;;;;;;4981740;28;107671;-77
2022/06/03 03:00:26;;;;;;;;;;;;;;;;;;4987668;28;125751;-77
2022/06/03 03:02:53;;;;;;;;;;;;;;;;;;4984014;28;114465;-77
2022/06/03 03:05:19;;;;;;;;;;;;;;;;;;4977254;28;128493;-77
2022/06/03 03:07:45;;;;;;;;;;;;;;;;;;4988551;28;126541;-77
2022/06/03 03:10:11;;;;;;;;;;;;;;;;;;4975602;28;130344;-77
2022/06/03 03:12:39;;;;;;;;;;;;;;;;;;4976754;28;126015;-77
2022/06/03 03:15:06;;;;;;;;;;;;;;;;;;4990883;28;128025;-75
2022/06/03 03:17:32;;;;;;;;;;;;;;;;;;4986941;28;110134;-77
2022/06/03 03:20:00;;;;;;;;;;;;;;;;;;4984066;28;106115;-77
2022/06/03 03:22:27;;;;;;;;;;;;;;;;;;4987058;28;134132;-77
2022/06/03 03:24:53;;;;;;;;;;;;;;;;;;4975268;28;117921;-77
2022/06/03 03:27:19;;;;;;;;;;;;;;;;;;4977506;28;114934;-77
2022/06/03 03:29:46;;;;;;;;;;;;;;;;;;4984476;28;105879;-78
2022/06/03 03:32:12;;;;;;;;;;;;;;;;;;4986053;28;119258;-78
2022/06/03 03:34:38;;;;;;;;;;;;;;;;;;4973353;28;126829;-78
2022/06/03 03:37:05;;;;;;;;;;;;;;;;;;4982990;28;106108;-77
2022/06/03 03:39:31;;;;;;;;;;;;;;;;;;4982723;28;106620;-77
2022/06/03 03:41:58;;;;;;;;;;;;;;;;;;4987457;28;114055;-77
2022/06/03 03:44:24;;;;;;;;;;;;;;;;;;4984124;28;137034;-77
2022/06/03 03:46:50;;;;;;;;;;;;;;;;;;4982799;28;121883;-76
2022/06/03 03:49:17;;;;;;;;;;;;;;;;;;4987796;28;107067;-76
2022/06/03 03:51:43;;;;;;;;;;;;;;;;;;4982656;28;132845;-76
2022/06/03 03:54:09;;;;;;;;;;;;;;;;;;4988332;28;106145;-76
2022/06/03 03:56:36;;;;;;;;;;;;;;;;;;4980672;28;125574;-76
2022/06/03 03:59:02;;;;;;;;;;;;;;;;;;4991680;28;127950;-77
2022/06/03 04:01:28;;;;;;;;;;;;;;;;;;4973187;28;136413;-76
2022/06/03 04:03:55;;;;;;;;;;;;;;;;;;4986239;28;118553;-77
2022/06/03 04:06:22;;;;;;;;;;;;;;;;;;4978856;28;114843;-76
2022/06/03 04:08:48;;;;;;;;;;;;;;;;;;4986086;28;131968;-77
2022/06/03 04:11:14;;;;;;;;;;;;;;;;;;4976284;28;133699;-77
2022/06/03 04:13:40;;;;;;;;;;;;;;;;;;4987886;28;127182;-77
2022/06/03 04:16:07;;;;;;;;;;;;;;;;;;4982958;28;121674;-76
2022/06/03 04:18:33;;;;;;;;;;;;;;;;;;4982191;28;109597;-73
2022/06/03 04:21:00;;;;;;;;;;;;;;;;;;4989921;28;112047;-76
2022/06/03 04:23:26;;;;;;;;;;;;;;;;;;4985146;28;107329;-77
2022/06/03 04:25:52;;;;;;;;;;;;;;;;;;4980283;28;106146;-76
2022/06/03 04:28:19;;;;;;;;;;;;;;;;;;4986216;28;129541;-76
2022/06/03 04:30:45;;;;;;;;;;;;;;;;;;4981053;28;135777;-76
2022/06/03 04:33:11;;;;;;;;;;;;;;;;;;4985330;28;105911;-77
2022/06/03 04:35:37;;;;;;;;;;;;;;;;;;4986968;28;133914;-76
2022/06/03 04:38:04;;;;;;;;;;;;;;;;;;4983697;28;131416;-70
2022/06/03 04:40:30;;;;;;;;;;;;;;;;;;4982347;28;129300;-77
2022/06/03 04:42:56;;;;;;;;;;;;;;;;;;4990632;28;134550;-76
2022/06/03 04:45:23;;;;;;;;;;;;;;;;;;4972909;28;106081;-76
2022/06/03 04:47:49;;;;;;;;;;;;;;;;;;4981755;28;106232;-76
2022/06/03 04:50:15;;;;;;;;;;;;;;;;;;4984748;28;136939;-76
2022/06/03 04:52:50;;;;;;;;;;;;;;;;;;4982923;28;121732;-76
2022/06/03 04:55:17;;;;;;;;;;;;;;;;;;4985355;28;106008;-76
2022/06/03 04:57:43;;;;;;;;;;;;;;;;;;4980835;28;107236;-76
2022/06/03 05:00:09;;;;;;;;;;;;;;;;;;4986501;28;106374;-76
2022/06/03 05:02:36;;;;;;;;;;;;;;;;;;4982646;28;107423;-79
2022/06/03 05:05:02;;;;;;;;;;;;;;;;;;4984029;28;106591;-76
2022/06/03 05:07:33;;;;;;;;;;;;;;;;;;4981768;28;118656;-70
2022/06/03 05:10:00;;;;;;;;;;;;;;;;;;4985856;28;110589;-77
2022/06/03 05:12:26;;;;;;;;;;;;;;;;;;4980268;28;114815;-77
2022/06/03 05:14:52;;;;;;;;;;;;;;;;;;4981574;28;120728;-77
2022/06/03 05:17:19;;;;;;;;;;;;;;;;;;4976528;28;120853;-75
2022/06/03 05:19:45;;;;;;;;;;;;;;;;;;4998534;28;105875;-77
2022/06/03 05:22:11;;;;;;;;;;;;;;;;;;4983233;28;133978;-76
2022/06/03 05:24:37;;;;;;;;;;;;;;;;;;4985412;28;135879;-77
2022/06/03 05:27:04;;;;;;;;;;;;;;;;;;4980666;28;135394;-71
2022/06/03 05:29:30;;;;;;;;;;;;;;;;;;4979095;28;112386;-77
2022/06/03 05:31:57;;;;;;;;;;;;;;;;;;4983630;28;112212;-77
2022/06/03 05:34:23;;;;;;;;;;;;;;;;;;4980830;28;114910;-77
2022/06/03 05:36:49;;;;;;;;;;;;;;;;;;4985057;28;119610;-77
2022/06/03 05:39:16;;;;;;;;;;;;;;;;;;4988807;28;124974;-77
2022/06/03 05:44:27;;;;;;;;;;;;;;;;;;4984881;28;132947;-77
2022/06/03 05:46:53;;;;;;;;;;;;;;;;;;4992100;28;128994;-77
2022/06/03 05:49:19;;;;;;;;;;;;;;;;;;4988653;28;121493;-77
2022/06/03 05:51:46;;;;;;;;;;;;;;;;;;4983023;28;120721;-78
2022/06/03 05:54:12;;;;;;;;;;;;;;;;;;4987339;28;137507;-78
2022/06/03 05:56:38;;;;;;;;;;;;;;;;;;4988568;28;119561;-78
2022/06/03 05:59:05;;;;;;;;;;;;;;;;;;4986115;28;129641;-78
2022/06/03 06:01:31;;;;;;;;;;;;;;;;;;5004631;28;109269;-77
2022/06/03 06:03:57;;;;;;;;;;;;;;;;;;4986586;28;135814;-77
2022/06/03 06:06:25;;;;;;;;;;;;;;;;;;4983354;28;110372;-78
2022/06/03 06:08:51;;;;;;;;;;;;;;;;;;4990453;28;109292;-77
2022/06/03 06:11:18;;;;;;;;;;;;;;;;;;4988284;28;118157;-77
2022/06/03 06:13:44;;;;;;;;;;;;;;;;;;4987229;28;106766;-78
2022/06/03 06:16:10;;;;;;;;;;;;;;;;;;4981337;28;128505;-77
2022/06/03 06:18:38;;;;;;;;;;;;;;;;;;4987919;28;126159;-77
2022/06/03 06:21:04;;;;;;;;;;;;;;;;;;4978976;28;109226;-78
2022/06/03 06:23:31;;;;;;;;;;;;;;;;;;4986076;28;132237;-77
2022/06/03 06:25:57;;;;;;;;;;;;;;;;;;4979262;28;106601;-78
2022/06/03 06:28:23;;;;;;;;;;;;;;;;;;4984295;28;114485;-81
2022/06/03 06:30:50;;;;;;;;;;;;;;;;;;4991243;28;113050;-76
2022/06/03 06:33:16;;;;;;;;;;;;;;;;;;4967932;28;121536;-76
2022/06/03 06:35:43;;;;;;;;;;;;;;;;;;4969050;28;106506;-75
2022/06/03 06:38:09;;;;;;;;;;;;;;;;;;4984837;28;118007;-75
2022/06/03 06:40:37;;;;;;;;;;;;;;;;;;4988990;28;133599;-75
2022/06/03 06:43:03;;;;;;;;;;;;;;;;;;4982982;28;137195;-70
2022/06/03 06:45:30;;;;;;;;;;;;;;;;;;4982636;28;129045;-79
2022/06/03 06:47:58;;;;;;;;;;;;;;;;;;4984612;28;129662;-78
2022/06/03 06:50:24;;;;;;;;;;;;;;;;;;4982809;28;132639;-73
2022/06/03 06:52:50;;;;;;;;;;;;;;;;;;4990533;28;113290;-74
2022/06/03 06:55:17;;;;;;;;;;;;;;;;;;4972917;28;132640;-73
2022/06/03 06:57:43;;;;;;;;;;;;;;;;;;4974005;28;117713;-73
2022/06/03 07:00:09;;;;;;;;;;;;;;;;;;4985441;28;114740;-73
2022/06/03 07:02:36;;;;;;;;;;;;;;;;;;4982679;28;130379;-72
2022/06/03 07:05:03;;;;;;;;;;;;;;;;;;4976437;28;114664;-69
2022/06/03 07:07:30;;;;;;;;;;;;;;;;;;4989277;28;107114;-70
2022/06/03 07:09:56;;;;;;;;;;;;;;;;;;4988314;28;133943;-74
2022/06/03 07:12:22;;;;;;;;;;;;;;;;;;4987706;28;106300;-73
2022/06/03 07:15:09;;;;;;;;;;;;;;;;;;4978942;28;109314;-72
2022/06/03 07:20:20;;;;;;;;;;;;;;;;;;4978360;28;106342;-71
2022/06/03 07:22:47;;;;;;;;;;;;;;;;;;4987676;28;107527;-72
2022/06/03 07:25:13;;;;;;;;;;;;;;;;;;4984434;28;109540;-72
2022/06/03 07:27:40;;;;;;;;;;;;;;;;;;4986124;28;119855;-71
2022/06/03 07:30:06;;;;;;;;;;;;;;;;;;4988196;28;122752;-73
2022/06/03 07:32:33;;;;;;;;;;;;;;;;;;4980676;28;118111;-72
2022/06/03 07:35:00;;;;;;;;;;;;;;;;;;4991355;28;106910;-73
2022/06/03 07:37:27;;;;;;;;;;;;;;;;;;4984029;28;129621;-73
2022/06/03 07:39:53;;;;;;;;;;;;;;;;;;4977716;28;106848;-72
2022/06/03 07:42:20;;;;;;;;;;;;;;;;;;4982146;28;107851;-72
2022/06/03 07:44:46;;;;;;;;;;;;;;;;;;4983909;28;117410;-72
2022/06/03 07:47:13;;;;;;;;;;;;;;;;;;4985190;28;107990;-72
2022/06/03 07:49:40;;;;;;;;;;;;;;;;;;4984876;28;108751;-73
2022/06/03 07:52:06;;;;;;;;;;;;;;;;;;4988827;28;117413;-71
2022/06/03 07:54:34;;;;;;;;;;;;;;;;;;4985362;28;110567;-71
2022/06/03 07:57:00;;;;;;;;;;;;;;;;;;4984590;28;136082;-70
2022/06/03 07:59:31;;;;;;;;;;;;;;;;;;4986450;28;131045;-71
2022/06/03 08:01:57;;;;;;;;;;;;;;;;;;4977864;28;127080;-71
2022/06/03 08:04:23;;;;;;;;;;;;;;;;;;4980192;28;113259;-71
2022/06/03 08:12:19;;;;;;;;;;;;;;;;;;4982554;28;112984;-74
2022/06/03 08:14:46;;;;;;;;;;;;;;;;;;4982325;28;107810;-73
2022/06/03 08:17:12;;;;;;;;;;;;;;;;;;4981059;28;140420;-75
2022/06/03 08:19:40;;;;;;;;;;;;;;;;;;4978658;28;115093;-75
2022/06/03 08:22:08;;;;;;;;;;;;;;;;;;4983687;28;118228;-75
2022/06/03 08:24:34;;;;;;;;;;;;;;;;;;4984213;28;105807;-74
2022/06/03 08:27:01;;;;;;;;;;;;;;;;;;4988326;28;107277;-74
2022/06/03 08:29:27;;;;;;;;;;;;;;;;;;4983196;28;130144;-74
2022/06/03 08:31:53;;;;;;;;;;;;;;;;;;4987646;28;115768;-75
2022/06/03 08:34:20;;;;;;;;;;;;;;;;;;4977928;28;122744;-74
2022/06/03 08:36:46;;;;;;;;;;;;;;;;;;4978644;28;106266;-74
2022/06/03 08:39:12;;;;;;;;;;;;;;;;;;4979498;28;111648;-74
2022/06/03 08:41:39;;;;;;;;;;;;;;;;;;4990631;28;117680;-74
2022/06/03 08:44:05;;;;;;;;;;;;;;;;;;4982554;28;111124;-74
2022/06/03 08:46:32;;;;;;;;;;;;;;;;;;4979106;28;107786;-74
2022/06/03 08:48:58;;;;;;;;;;;;;;;;;;4980405;28;111846;-74
2022/06/03 08:51:24;;;;;;;;;;;;;;;;;;4978122;28;114936;-74
2022/06/03 08:53:51;;;;;;;;;;;;;;;;;;4982331;28;112109;-74
2022/06/03 08:56:17;;;;;;;;;;;;;;;;;;4980643;28;135333;-73
2022/06/03 08:58:44;;;;;;;;;;;;;;;;;;4982907;28;107385;-74
2022/06/03 09:01:10;;;;;;;;;;;;;;;;;;4985068;28;131727;-75
2022/06/03 09:03:37;;;;;;;;;;;;;;;;;;4985615;28;110090;-74
2022/06/03 09:06:06;;;;;;;;;;;;;;;;;;4988118;28;107517;-73
2022/06/03 09:08:32;;;;;;;;;;;;;;;;;;4984143;28;128332;-74
2022/06/03 09:10:59;;;;;;;;;;;;;;;;;;4987617;28;123531;-74
2022/06/03 09:13:25;;;;;;;;;;;;;;;;;;4981054;28;110270;-74
2022/06/03 09:15:52;;;;;;;;;;;;;;;;;;4980384;28;107502;-74
2022/06/03 09:18:18;;;;;;;;;;;;;;;;;;4978243;28;115955;-74
2022/06/03 09:20:50;;;;;;;;;;;;;;;;;;4976479;28;121200;-73
2022/06/03 09:23:16;;;;;;;;;;;;;;;;;;4976616;27;109247;-71
2022/06/03 09:25:43;;;;;;;;;;;;;;;;;;4980700;28;112887;-71
2022/06/03 09:28:09;;;;;;;;;;;;;;;;;;4976938;28;128483;-68
2022/06/03 09:30:37;;;;;;;;;;;;;;;;;;4986419;28;110804;-73
2022/06/03 09:33:05;;;;;;;;;;;;;;;;;;4982453;28;107402;-71
2022/06/03 09:35:32;;;;;;;;;;;;;;;;;;4980686;28;107834;-72
2022/06/03 09:37:58;;;;;;;;;;;;;;;;;;4977752;28;106304;-73
2022/06/03 09:40:25;;;;;;;;;;;;;;;;;;4992055;27;109348;-72
2022/06/03 09:42:51;;;;;;;;;;;;;;;;;;4978984;28;125320;-71
2022/06/03 09:45:20;;;;;;;;;;;;;;;;;;4989064;28;114750;-68
2022/06/03 09:47:46;;;;;;;;;;;;;;;;;;4981743;28;126766;-73
2022/06/03 09:50:13;;;;;;;;;;;;;;;;;;4975966;28;114993;-75
2022/06/03 09:52:39;;;;;;;;;;;;;;;;;;4980272;28;106435;-69
2022/06/03 09:55:05;;;;;;;;;;;;;;;;;;4976083;28;115660;-70
2022/06/03 09:57:32;;;;;;;;;;;;;;;;;;4975822;28;117612;-70
2022/06/03 09:59:58;;;;;;;;;;;;;;;;;;4978464;28;111882;-70
2022/06/03 10:02:24;;;;;;;;;;;;;;;;;;4975192;28;107905;-78
2022/06/03 10:04:51;;;;;;;;;;;;;;;;;;4976834;28;125064;-76
2022/06/03 10:07:18;;;;;;;;;;;;;;;;;;4986554;28;129281;-69
2022/06/03 10:17:59;;;;;;;;;;;;;;;;;;4986398;28;115435;-71
2022/06/03 10:20:26;;;;;;;;;;;;;;;;;;4975760;28;107113;-69
2022/06/03 10:22:52;;;;;;;;;;;;;;;;;;4983083;28;138115;-71
2022/06/03 10:25:19;;;;;;;;;;;;;;;;;;4982902;28;118047;-70
2022/06/03 10:27:45;;;;;;;;;;;;;;;;;;4985738;28;106643;-69
2022/06/03 10:30:11;;;;;;;;;;;;;;;;;;4984455;28;113348;-70
2022/06/03 10:32:38;;;;;;;;;;;;;;;;;;4978936;28;110302;-72
2022/06/03 10:35:05;;;;;;;;;;;;;;;;;;4981589;28;124784;-71
2022/06/03 10:37:31;;;;;;;;;;;;;;;;;;4983915;28;114144;-73
2022/06/03 10:39:57;;;;;;;;;;;;;;;;;;4981594;28;116495;-69
2022/06/03 10:42:23;;;;;;;;;;;;;;;;;;4982679;28;129072;-73
2022/06/03 10:44:50;;;;;;;;;;;;;;;;;;4984771;28;119522;-72
2022/06/03 10:47:19;;;;;;;;;;;;;;;;;;4980799;28;138436;-71
2022/06/03 10:49:45;;;;;;;;;;;;;;;;;;4987316;28;120188;-72
2022/06/03 11:03:12;;;;;;;;;;;;;;;;;;4986833;28;123724;-72
2022/06/03 11:05:39;;;;;;;;;;;;;;;;;;4976860;28;130083;-72
2022/06/03 11:08:05;;;;;;;;;;;;;;;;;;4983962;28;107126;-71
2022/06/03 11:10:32;;;;;;;;;;;;;;;;;;4986994;28;115961;-72
2022/06/03 11:13:10;;;;;;;;;;;;;;;;;;4975342;28;108547;-72
2022/06/03 11:15:36;;;;;;;;;;;;;;;;;;4986771;28;136336;-72
2022/06/03 11:18:03;;;;;;;;;;;;;;;;;;4980499;28;130074;-72
2022/06/03 11:20:29;;;;;;;;;;;;;;;;;;4981906;28;136051;-71
2022/06/03 11:22:56;;;;;;;;;;;;;;;;;;4985730;28;133728;-70
2022/06/03 11:25:22;;;;;;;;;;;;;;;;;;4982071;28;129542;-70
2022/06/03 11:27:48;;;;;;;;;;;;;;;;;;4989484;28;108332;-75
2022/06/03 11:30:15;;;;;;;;;;;;;;;;;;4986336;28;108309;-72
2022/06/03 11:32:41;;;;;;;;;;;;;;;;;;4984607;28;107519;-72
2022/06/03 11:35:07;;;;;;;;;;;;;;;;;;4988528;28;126058;-73
2022/06/03 11:37:34;;;;;;;;;;;;;;;;;;4976933;28;118394;-69
2022/06/03 11:40:00;;;;;;;;;;;;;;;;;;4986299;28;132904;-72
2022/06/03 11:42:27;;;;;;;;;;;;;;;;;;4986203;28;108833;-73
2022/06/03 11:44:53;;;;;;;;;;;;;;;;;;4984014;28;108348;-70
2022/06/03 11:47:19;;;;;;;;;;;;;;;;;;4984952;28;129132;-71
2022/06/03 11:49:46;;;;;;;;;;;;;;;;;;4980065;28;124860;-71
2022/06/03 11:52:13;;;;;;;;;;;;;;;;;;4978810;28;107407;-70
2022/06/03 11:54:39;;;;;;;;;;;;;;;;;;4974842;28;122129;-71
2022/06/03 11:57:07;;;;;;;;;;;;;;;;;;4982620;28;126380;-70
2022/06/03 11:59:33;;;;;;;;;;;;;;;;;;4982964;28;121349;-70
2022/06/03 12:02:00;;;;;;;;;;;;;;;;;;4982216;28;137619;-70
2022/06/03 12:04:31;;;;;;;;;;;;;;;;;;4984025;28;130791;-70
2022/06/03 12:06:58;;;;;;;;;;;;;;;;;;4986689;28;107116;-70
2022/06/03 12:09:24;;;;;;;;;;;;;;;;;;4980986;28;127434;-70
2022/06/03 12:14:35;;;;;;;;;;;;;;;;;;4983458;28;135591;-71
2022/06/03 12:17:02;;;;;;;;;;;;;;;;;;4982637;28;112245;-73
2022/06/03 12:19:28;;;;;;;;;;;;;;;;;;4986914;28;107406;-74
2022/06/03 12:21:55;;;;;;;;;;;;;;;;;;4980799;28;119585;-70
2022/06/03 12:24:21;;;;;;;;;;;;;;;;;;4980820;28;108465;-69
2022/06/03 12:26:47;;;;;;;;;;;;;;;;;;4983827;28;124567;-72
2022/06/03 12:29:14;;;;;;;;;;;;;;;;;;4975478;28;136000;-71
2022/06/03 12:31:41;;;;;;;;;;;;;;;;;;4980425;28;123206;-70
2022/06/03 12:34:08;;;;;;;;;;;;;;;;;;4977671;28;127738;-70
2022/06/03 12:36:34;;;;;;;;;;;;;;;;;;4983433;28;138384;-69
2022/06/03 12:39:01;;;;;;;;;;;;;;;;;;4982803;28;109116;-70
2022/06/03 12:41:27;;;;;;;;;;;;;;;;;;4988794;28;109366;-71
2022/06/03 12:43:53;;;;;;;;;;;;;;;;;;4973883;28;129751;-71
2022/06/03 12:46:19;;;;;;;;;;;;;;;;;;4981598;28;138898;-71
2022/06/03 12:48:46;;;;;;;;;;;;;;;;;;4982471;28;138737;-70
2022/06/03 12:51:12;;;;;;;;;;;;;;;;;;4980084;28;111216;-71
2022/06/03 12:53:39;;;;;;;;;;;;;;;;;;4983232;28;108654;-69
2022/06/03 12:56:05;;;;;;;;;;;;;;;;;;4977082;28;138412;-69
2022/06/03 12:58:31;;;;;;;;;;;;;;;;;;4980747;28;118219;-69
2022/06/03 13:00:58;;;;;;;;;;;;;;;;;;4974632;28;137895;-72
2022/06/03 13:03:24;;;;;;;;;;;;;;;;;;4981203;28;123727;-72
2022/06/03 13:05:50;;;;;;;;;;;;;;;;;;4984400;28;137039;-70
2022/06/03 13:08:17;;;;;;;;;;;;;;;;;;4971359;28;108156;-70
2022/06/03 13:10:43;;;;;;;;;;;;;;;;;;4976749;28;130570;-70
2022/06/03 13:13:09;;;;;;;;;;;;;;;;;;4984057;28;125397;-71
2022/06/03 13:15:35;;;;;;;;;;;;;;;;;;4980874;28;138791;-70
2022/06/03 13:20:34;;;;;;;;;;;;;;;;;;4981646;28;130462;-70
2022/06/03 13:23:01;;;;;;;;;;;;;;;;;;4980045;28;119793;-70
2022/06/03 13:25:28;;;;;;;;;;;;;;;;;;4983419;28;116108;-71
2022/06/03 13:27:55;;;;;;;;;;;;;;;;;;4977967;28;128734;-72
2022/06/03 13:30:21;;;;;;;;;;;;;;;;;;4978988;28;107128;-71
2022/06/03 13:32:48;;;;;;;;;;;;;;;;;;4979153;28;132846;-71
2022/06/03 13:35:14;;;;;;;;;;;;;;;;;;4978629;28;125140;-72
2022/06/03 13:37:40;;;;;;;;;;;;;;;;;;4982595;28;125109;-72
2022/06/03 13:40:07;;;;;;;;;;;;;;;;;;4985416;28;130199;-73
2022/06/03 13:45:33;;;;;;;;;;;;;;;;;;4969166;28;120993;-71
2022/06/03 13:48:00;;;;;;;;;;;;;;;;;;4980558;28;121569;-72
2022/06/03 13:50:26;;;;;;;;;;;;;;;;;;4967034;28;108054;-73
2022/06/03 13:52:53;;;;;;;;;;;;;;;;;;4971305;28;133030;-72
2022/06/03 13:55:19;;;;;;;;;;;;;;;;;;4975645;28;125627;-72
2022/06/03 13:57:45;;;;;;;;;;;;;;;;;;4983143;28;124031;-72
2022/06/03 14:00:13;;;;;;;;;;;;;;;;;;4983396;28;113358;-72
2022/06/03 14:02:40;;;;;;;;;;;;;;;;;;4983596;28;110111;-73
2022/06/03 14:05:06;;;;;;;;;;;;;;;;;;4981522;28;108035;-73
2022/06/03 14:07:32;;;;;;;;;;;;;;;;;;4985508;28;138177;-72
2022/06/03 14:09:59;;;;;;;;;;;;;;;;;;4988680;28;108260;-71
2022/06/03 14:12:25;;;;;;;;;;;;;;;;;;4983736;28;127440;-72
2022/06/03 14:14:51;;;;;;;;;;;;;;;;;;4982308;28;139202;-72
2022/06/03 14:17:18;;;;;;;;;;;;;;;;;;4984888;28;109842;-72
2022/06/03 14:19:45;;;;;;;;;;;;;;;;;;4985337;28;132058;-72
2022/06/03 14:22:25;;;;;;;;;;;;;;;;;;4985498;28;136751;-72
2022/06/03 14:24:51;;;;;;;;;;;;;;;;;;4985485;28;124739;-72
2022/06/03 14:27:17;;;;;;;;;;;;;;;;;;4977750;28;138856;-73
2022/06/03 14:29:44;;;;;;;;;;;;;;;;;;4981751;28;138458;-73
2022/06/03 14:32:10;;;;;;;;;;;;;;;;;;4987171;28;124010;-74
2022/06/03 14:34:36;;;;;;;;;;;;;;;;;;4984454;28;138493;-72
2022/06/03 14:37:03;;;;;;;;;;;;;;;;;;4983277;28;114420;-70
2022/06/03 14:39:30;;;;;;;;;;;;;;;;;;4983198;28;136121;-73
2022/06/03 14:41:56;;;;;;;;;;;;;;;;;;4982127;28;109278;-73
2022/06/03 14:44:22;;;;;;;;;;;;;;;;;;4985137;28;130696;-73
2022/06/03 14:46:49;;;;;;;;;;;;;;;;;;4985552;28;136876;-73
2022/06/03 14:49:15;;;;;;;;;;;;;;;;;;4981209;28;107848;-72
2022/06/03 14:51:41;;;;;;;;;;;;;;;;;;4985416;28;107685;-72
2022/06/03 14:54:08;;;;;;;;;;;;;;;;;;4978974;28;122313;-73
2022/06/03 14:56:34;;;;;;;;;;;;;;;;;;4976025;28;112505;-73
2022/06/03 14:59:00;;;;;;;;;;;;;;;;;;4983996;28;134772;-73
2022/06/03 15:01:27;;;;;;;;;;;;;;;;;;4978171;28;136123;-72
2022/06/03 15:03:53;;;;;;;;;;;;;;;;;;4985169;28;124877;-74
2022/06/03 15:06:19;;;;;;;;;;;;;;;;;;4973709;28;130130;-72
2022/06/03 15:08:45;;;;;;;;;;;;;;;;;;4984039;28;120275;-70
2022/06/03 15:11:12;;;;;;;;;;;;;;;;;;4984580;28;118450;-71
2022/06/03 15:13:39;;;;;;;;;;;;;;;;;;4985911;28;124486;-71
2022/06/03 15:16:05;;;;;;;;;;;;;;;;;;4983891;28;117952;-71
2022/06/03 15:18:33;;;;;;;;;;;;;;;;;;4975799;28;119742;-70
2022/06/03 15:21:00;;;;;;;;;;;;;;;;;;4975425;28;132869;-69
2022/06/03 15:23:26;;;;;;;;;;;;;;;;;;4965704;27;123660;-69
2022/06/03 15:25:58;;;;;;;;;;;;;;;;;;4984761;28;133184;-69
2022/06/03 15:28:24;;;;;;;;;;;;;;;;;;4976563;27;128761;-68
2022/06/03 15:30:51;;;;;;;;;;;;;;;;;;4978918;28;126104;-69
2022/06/03 15:33:17;;;;;;;;;;;;;;;;;;4977725;28;109356;-69
2022/06/03 15:35:43;;;;;;;;;;;;;;;;;;4978759;28;107993;-69
2022/06/03 15:38:13;;;;;;;;;;;;;;;;;;4982108;28;116410;-69
2022/06/03 15:40:39;;;;;;;;;;;;;;;;;;4977857;28;108118;-69
2022/06/03 15:43:05;;;;;;;;;;;;;;;;;;4984897;28;128120;-70
2022/06/03 15:45:34;;;;;;;;;;;;;;;;;;4982584;28;138724;-70
2022/06/03 15:48:00;;;;;;;;;;;;;;;;;;4977968;27;126183;-69
2022/06/03 15:50:26;;;;;;;;;;;;;;;;;;4979709;28;110590;-69
2022/06/03 15:52:53;;;;;;;;;;;;;;;;;;4978745;28;137268;-69
2022/06/03 15:55:19;;;;;;;;;;;;;;;;;;4983360;28;135632;-70
2022/06/03 15:57:45;;;;;;;;;;;;;;;;;;4981462;28;119233;-70
2022/06/03 16:00:12;;;;;;;;;;;;;;;;;;4977146;28;128740;-75
2022/06/03 16:02:38;;;;;;;;;;;;;;;;;;4983197;27;107330;-77
2022/06/03 16:05:05;;;;;;;;;;;;;;;;;;4980674;28;132445;-70
2022/06/03 16:07:31;;;;;;;;;;;;;;;;;;4978122;27;108192;-75
2022/06/03 16:09:57;;;;;;;;;;;;;;;;;;4980590;28;123405;-76
2022/06/03 16:12:24;;;;;;;;;;;;;;;;;;4980621;27;125233;-75
2022/06/03 16:14:50;;;;;;;;;;;;;;;;;;4977447;28;122623;-75
2022/06/03 16:17:21;;;;;;;;;;;;;;;;;;4978543;28;123255;-68
2022/06/03 16:19:48;;;;;;;;;;;;;;;;;;4985727;28;109980;-71
2022/06/03 16:22:14;;;;;;;;;;;;;;;;;;4983216;27;107581;-73
2022/06/03 16:24:41;;;;;;;;;;;;;;;;;;4980297;28;107978;-71
2022/06/03 16:27:07;;;;;;;;;;;;;;;;;;4984660;28;108031;-77
2022/06/03 16:29:35;;;;;;;;;;;;;;;;;;4983389;28;120372;-70
2022/06/03 16:32:01;;;;;;;;;;;;;;;;;;4976700;28;131735;-72
2022/06/03 16:34:28;;;;;;;;;;;;;;;;;;4983521;28;121585;-72
2022/06/03 16:36:55;;;;;;;;;;;;;;;;;;4984383;28;122114;-72
2022/06/03 16:39:22;;;;;;;;;;;;;;;;;;4974871;28;119633;-73
2022/06/03 16:41:48;;;;;;;;;;;;;;;;;;4976584;28;115912;-74
2022/06/03 16:44:14;;;;;;;;;;;;;;;;;;4980398;28;134753;-74
2022/06/03 16:46:41;;;;;;;;;;;;;;;;;;4973345;28;118871;-74
2022/06/03 16:49:07;;;;;;;;;;;;;;;;;;4984154;28;108203;-72
2022/06/03 16:51:34;;;;;;;;;;;;;;;;;;4956992;28;120805;-69
2022/06/03 16:54:00;;;;;;;;;;;;;;;;;;4982059;28;130212;-72
2022/06/03 16:56:26;;;;;;;;;;;;;;;;;;4972062;28;129886;-72
2022/06/03 16:58:53;;;;;;;;;;;;;;;;;;4976852;28;109192;-73
2022/06/03 17:01:19;;;;;;;;;;;;;;;;;;4975621;28;107447;-72
2022/06/03 17:03:45;;;;;;;;;;;;;;;;;;4971695;28;120406;-72